createdAt,value
2023-05-06T00:00:31.017Z,47.55
2023-05-06T00:10:32.278Z,47.44
2023-05-06T00:20:33.582Z,47.30
2023-05-06T00:30:34.832Z,47.32
2023-05-06T00:40:36.078Z,47.04
2023-05-06T00:50:37.303Z,46.80
2023-05-06T01:00:38.551Z,46.65
2023-05-06T01:10:39.837Z,46.34
2023-05-06T01:20:41.058Z,46.34
2023-05-06T01:30:42.395Z,46.17
2023-05-06T01:40:43.750Z,45.86
2023-05-06T01:50:45.039Z,45.71
2023-05-06T02:00:46.294Z,45.71
2023-05-06T02:10:47.920Z,45.78
2023-05-06T02:20:49.440Z,45.55
2023-05-06T02:30:50.819Z,45.37
2023-05-06T02:40:52.065Z,45.27
2023-05-06T02:50:53.402Z,45.15
2023-05-06T03:00:54.720Z,44.90
2023-05-06T03:10:56.010Z,44.88
2023-05-06T03:20:57.332Z,44.75
2023-05-06T03:30:58.599Z,44.46
2023-05-06T03:40:59.876Z,44.29
2023-05-06T03:51:01.131Z,44.33
2023-05-06T04:01:02.409Z,44.10
2023-05-06T04:11:03.706Z,44.54
2023-05-06T04:21:05.025Z,44.08
2023-05-06T04:31:06.301Z,44.61
2023-05-06T04:41:07.551Z,45.00
2023-05-06T04:51:08.814Z,45.12
2023-05-06T05:01:10.152Z,45.37
2023-05-06T05:11:11.476Z,45.30
2023-05-06T05:21:12.719Z,45.75
2023-05-06T05:31:14.076Z,46.12
2023-05-06T05:41:17.316Z,46.46
2023-05-06T05:51:18.849Z,46.79
2023-05-06T06:01:20.063Z,47.34
2023-05-06T06:11:21.290Z,48.87
2023-05-06T06:21:22.524Z,49.28
2023-05-06T06:31:23.787Z,49.88
2023-05-06T06:41:25.032Z,50.03
2023-05-06T06:51:26.296Z,51.13
2023-05-06T07:01:27.590Z,50.99
2023-05-06T07:11:28.849Z,50.45
2023-05-06T07:21:30.091Z,50.68
2023-05-06T07:31:31.387Z,51.32
2023-05-06T07:41:32.719Z,51.31
2023-05-06T07:51:33.931Z,51.57
2023-05-06T08:01:35.167Z,51.43
2023-05-06T08:11:36.439Z,51.67
2023-05-06T08:21:37.675Z,53.60
2023-05-06T08:31:45.156Z,54.16
2023-05-06T08:41:46.532Z,52.77
2023-05-06T08:51:47.768Z,53.47
2023-05-06T09:01:49.030Z,53.69
2023-05-06T09:11:50.297Z,53.12
2023-05-06T09:21:51.616Z,53.25
2023-05-06T09:31:52.901Z,54.80
2023-05-06T09:41:54.152Z,54.99
2023-05-06T09:51:55.403Z,54.58
2023-05-06T10:01:58.928Z,56.55
2023-05-06T10:12:00.224Z,56.52
2023-05-06T10:22:01.750Z,55.85
2023-05-06T10:32:03.670Z,56.19
2023-05-06T10:42:04.922Z,54.02
2023-05-06T10:52:06.182Z,55.45
2023-05-06T11:02:07.474Z,55.45
2023-05-06T11:12:08.790Z,53.64
2023-05-06T11:22:10.046Z,53.68
2023-05-06T11:32:11.282Z,53.57
2023-05-06T11:42:12.571Z,52.69
2023-05-06T11:52:13.812Z,53.69
2023-05-06T12:02:15.067Z,52.72
2023-05-06T12:12:16.356Z,52.10
2023-05-06T12:22:17.632Z,52.65
2023-05-06T12:32:18.940Z,51.61
2023-05-06T12:42:20.208Z,51.26
2023-05-06T12:52:21.462Z,51.13
2023-05-06T13:02:22.847Z,50.96
2023-05-06T13:12:24.216Z,50.96
2023-05-06T13:22:25.461Z,50.39
2023-05-06T13:32:26.764Z,50.29
2023-05-06T13:42:28.066Z,50.15
2023-05-06T13:52:29.294Z,50.08
2023-05-06T14:02:34.177Z,49.67
2023-05-06T14:12:35.525Z,49.68
2023-05-06T14:23:00.767Z,49.36
2023-05-06T14:33:08.207Z,49.63
2023-05-06T14:43:15.808Z,49.28
2023-05-06T14:53:27.049Z,48.85
2023-05-06T15:03:32.128Z,48.67
2023-05-06T15:13:40.088Z,48.37
2023-05-06T15:23:48.266Z,48.44
2023-05-06T15:34:00.239Z,48.54
2023-05-06T15:44:06.153Z,48.65
2023-05-06T15:54:14.166Z,48.38
2023-05-06T16:04:22.406Z,48.60
2023-05-06T16:14:30.133Z,49.23
2023-05-06T16:24:38.105Z,49.72
2023-05-06T16:34:46.157Z,50.29
2023-05-06T16:44:55.133Z,50.68
2023-05-06T16:55:04.642Z,51.08
2023-05-06T17:05:15.489Z,51.36
2023-05-06T17:15:20.171Z,51.59
2023-05-06T17:25:31.345Z,51.30
2023-05-06T17:35:36.122Z,51.50
2023-05-06T17:45:43.942Z,51.74
2023-05-06T17:55:52.151Z,52.03
2023-05-06T18:06:01.158Z,52.11
2023-05-06T18:16:12.434Z,52.26
2023-05-06T18:26:27.997Z,52.38
2023-05-06T18:36:38.401Z,52.35
2023-05-06T18:46:39.657Z,52.64
2023-05-06T18:56:40.958Z,52.37
2023-05-06T19:06:42.269Z,52.82
2023-05-06T19:16:43.651Z,52.91
2023-05-06T19:26:45.039Z,52.73
2023-05-06T19:36:46.343Z,52.49
2023-05-06T19:46:47.696Z,52.71
2023-05-06T19:56:51.024Z,52.51
2023-05-06T20:06:55.284Z,52.55
2023-05-06T20:16:59.376Z,52.38
2023-05-06T20:27:00.644Z,52.54
2023-05-06T20:37:01.890Z,52.32
2023-05-06T20:47:12.161Z,52.62
2023-05-06T20:57:13.419Z,52.72
2023-05-06T21:07:14.816Z,52.19
2023-05-06T21:17:16.115Z,52.50
2023-05-06T21:27:17.441Z,52.52
2023-05-06T21:37:18.706Z,52.62
2023-05-06T21:47:19.961Z,52.56
2023-05-06T21:57:21.233Z,52.69
2023-05-06T22:07:22.489Z,52.39
2023-05-06T22:17:23.743Z,52.69
2023-05-06T22:27:25.125Z,51.87
2023-05-06T22:37:26.395Z,51.98
2023-05-06T22:47:27.688Z,51.81
2023-05-06T22:57:28.995Z,51.61
2023-05-06T23:07:30.250Z,51.90
2023-05-06T23:17:31.535Z,51.81
2023-05-06T23:27:32.978Z,51.64
2023-05-06T23:37:34.344Z,51.59
2023-05-06T23:47:35.620Z,51.43
2023-05-06T23:57:36.900Z,51.64
